Marianne — VRFM5 — position and weather

sailwx.info

Track history (hours):
 
Tides and Currents Weather Stations Pressure Air Temp Water Temp Dewpoint Dewpoint Depression Visibility Wind Speed Wind Dir Waves Ship Positions

Marianne

Last reported at 2014-Sep-01 20:33 UTC. Time now 2014-Sep-01 21:19 UTC.
Position N 63°29' E 010°08'.

Length 97 m; draft 5.5 m.

Type: Ship (hazmat cat B). MMSI: 477560836.

Date/timePositionNaut miles runAvg speedWind from/ knotsBaromVisibWave heightAir tempDewpointWater temp
2014-Sep-01 20:33N 63°29' E 010°08'78 9.3
2014-Sep-01 12:10N 63°13' E 007°18'7 9.4
2014-Sep-01 11:23N 63°09' E 007°04'54113.2
2014-Aug-30 18:33N 55°04' W 000°40'1513.8
2014-Aug-30 17:29N 54°52' W 000°55'1213.1
2014-Aug-30 16:33N 54°41' W 001°05'5 0.2
2014-Aug-29 17:31N 54°37' W 001°10'0 0.0
2014-Aug-29 14:25N 54°37' W 001°10'0 0.0
2014-Aug-29 13:25N 54°37' W 001°10'0 0.0
2014-Aug-29 11:28N 54°37' W 001°10'0 0.0
2014-Aug-29 10:25N 54°37' W 001°10'0 0.0
2014-Aug-29 09:31N 54°37' W 001°10'0 0.0
2014-Aug-29 08:31N 54°37' W 001°10'0 0.0
2014-Aug-28 17:28N 54°37' W 001°10'0 0.0
2014-Aug-28 16:16N 54°37' W 001°10'0 0.0
2014-Aug-28 15:28N 54°37' W 001°10'0 0.0
2014-Aug-28 12:07N 54°37' W 001°10'0 0.0
2014-Aug-28 11:19N 54°37' W 001°10'0 0.0
2014-Aug-28 10:22N 54°37' W 001°10'0 0.0
2014-Aug-28 09:25N 54°37' W 001°10'0 0.0
2014-Aug-28 08:28N 54°37' W 001°10'0 0.0
2014-Aug-28 07:22N 54°37' W 001°10'0 0.0
2014-Aug-27 16:25N 54°37' W 001°10'0 0.0
2014-Aug-27 15:31N 54°37' W 001°10'0 0.0
2014-Aug-27 14:28N 54°37' W 001°10'0 0.0
2014-Aug-27 13:31N 54°37' W 001°10'0 0.0
2014-Aug-27 12:31N 54°37' W 001°10'1 0.9
2014-Aug-27 11:32N 54°38' W 001°09'5 3.3
2014-Aug-27 10:09N 54°40' W 001°02'0 0.0
2014-Aug-27 09:27N 54°40' W 001°02'0 0.0
2014-Aug-27 08:27N 54°40' W 001°02'0 0.0
2014-Aug-27 07:27N 54°40' W 001°02'0 0.0
2014-Aug-27 06:30N 54°40' W 001°02'0 0.0
2014-Aug-27 05:15N 54°40' W 001°02'0 0.0
2014-Aug-27 04:33N 54°40' W 001°02'0 0.0
2014-Aug-27 03:33N 54°40' W 001°02'0 0.0
2014-Aug-27 02:33N 54°40' W 001°02'0 0.0
2014-Aug-27 01:33N 54°40' W 001°02'0 0.0
2014-Aug-27 00:33N 54°40' W 001°02'0 0.0
2014-Aug-26 23:33N 54°40' W 001°02'0 0.0
2014-Aug-26 22:33N 54°40' W 001°02'0 0.0
2014-Aug-26 21:33N 54°40' W 001°02'0 0.0
2014-Aug-26 20:33N 54°40' W 001°02'0 0.0
2014-Aug-26 19:33N 54°40' W 001°02'0 0.0
2014-Aug-26 18:33N 54°40' W 001°02'0 0.0
2014-Aug-26 17:33N 54°40' W 001°02'0 0.0
2014-Aug-26 16:33N 54°40' W 001°02'0 0.0
2014-Aug-26 15:33N 54°40' W 001°02'0 0.0
2014-Aug-26 14:30N 54°40' W 001°02'0 0.0
2014-Aug-26 13:33N 54°40' W 001°02'0 0.0
2014-Aug-26 12:33N 54°40' W 001°02'0 0.0
2014-Aug-26 11:30N 54°40' W 001°02'0 0.0
2014-Aug-26 10:33N 54°40' W 001°02'0 0.0
2014-Aug-26 09:33N 54°40' W 001°02'0 0.0
2014-Aug-26 08:18N 54°40' W 001°02'0 0.0
2014-Aug-26 07:33N 54°40' W 001°02'0 0.0
2014-Aug-26 06:33N 54°40' W 001°02'0 0.0
2014-Aug-26 05:33N 54°40' W 001°02'0 0.0
2014-Aug-26 04:33N 54°40' W 001°02'0 0.0
2014-Aug-26 03:33N 54°40' W 001°02'0 0.0
2014-Aug-26 02:33N 54°40' W 001°02'0 0.0
2014-Aug-26 01:33N 54°40' W 001°02'0 0.0
2014-Aug-26 00:33N 54°40' W 001°02'0 0.0
2014-Aug-25 23:24N 54°40' W 001°02'0 0.0
2014-Aug-25 22:33N 54°40' W 001°02'0 0.0
2014-Aug-25 21:33N 54°40' W 001°02'0 0.0
2014-Aug-25 20:33N 54°40' W 001°02'0 0.0
2014-Aug-25 19:33N 54°40' W 001°02'0 0.0
2014-Aug-25 18:33N 54°40' W 001°02'0 0.0
2014-Aug-25 17:33N 54°40' W 001°02'0 0.0
2014-Aug-25 16:33N 54°40' W 001°02'0 0.0
2014-Aug-25 15:33N 54°40' W 001°02'0 0.0
2014-Aug-25 14:21N 54°40' W 001°02'0 0.0
2014-Aug-25 13:27N 54°40' W 001°02'0 0.0
2014-Aug-25 12:33N 54°40' W 001°02'0 0.0
2014-Aug-25 11:24N 54°40' W 001°02'0 0.0
2014-Aug-25 10:24N 54°40' W 001°02'0 0.0
2014-Aug-25 09:15N 54°40' W 001°02'0 0.0
2014-Aug-25 08:12N 54°40' W 001°02'0 0.0
2014-Aug-25 07:33N 54°40' W 001°02'0 0.0
2014-Aug-25 06:33N 54°40' W 001°02'0 0.1
2014-Aug-25 05:33N 54°40' W 001°01'0 0.0
2014-Aug-25 04:33N 54°40' W 001°01'0 0.0
2014-Aug-25 03:30N 54°40' W 001°01'0 0.0
2014-Aug-25 02:33N 54°40' W 001°01'0 0.0
2014-Aug-25 01:30N 54°40' W 001°01'0 0.0
2014-Aug-25 00:33N 54°40' W 001°01'0 0.1
2014-Aug-24 23:33N 54°40' W 001°02'0 0.0
2014-Aug-24 22:33N 54°40' W 001°02'0 0.0
2014-Aug-24 21:33N 54°40' W 001°02'0 0.0
2014-Aug-24 20:33N 54°40' W 001°02'0 0.0
2014-Aug-24 19:18N 54°40' W 001°02'0 0.0
2014-Aug-24 18:33N 54°40' W 001°02'0 0.0
2014-Aug-24 17:33N 54°40' W 001°02'0 0.0
2014-Aug-24 16:33N 54°40' W 001°02'0 0.0
2014-Aug-24 15:33N 54°40' W 001°01'0 0.0
2014-Aug-24 14:30N 54°40' W 001°01'0 0.0
2014-Aug-24 13:18N 54°40' W 001°01'0 0.0
2014-Aug-24 12:33N 54°40' W 001°01'0 0.0
2014-Aug-24 11:33N 54°40' W 001°01'0 0.0
2014-Aug-24 10:24N 54°40' W 001°02'0 0.0
2014-Aug-24 09:12N 54°40' W 001°02'0 0.0
2014-Aug-24 08:24N 54°40' W 001°01'0 0.1
2014-Aug-24 07:27N 54°40' W 001°01'0 0.0
2014-Aug-24 06:27N 54°40' W 001°01'0 0.0
2014-Aug-24 05:33N 54°40' W 001°01'0 0.0
2014-Aug-24 04:33N 54°40' W 001°01'0 0.0
2014-Aug-24 03:33N 54°40' W 001°01'0 0.0
2014-Aug-24 02:33N 54°40' W 001°01'0 0.0
2014-Aug-24 01:33N 54°40' W 001°01'0 0.0
2014-Aug-24 00:33N 54°40' W 001°01'0 0.0
2014-Aug-23 23:33N 54°40' W 001°01'0 0.0
2014-Aug-23 22:33N 54°40' W 001°01'0 0.1
2014-Aug-23 21:33N 54°40' W 001°01'0 0.0
2014-Aug-23 20:33N 54°40' W 001°01'0 0.0
2014-Aug-23 19:33N 54°40' W 001°01'79 4.9
2014-Aug-23 03:32N 53°48' E 000°40'4013.3
2014-Aug-23 00:33N 53°14' E 001°14'1515.3
2014-Aug-22 23:34N 53°04' E 001°33'1515.3
2014-Aug-22 22:33N 52°57' E 001°56'1813.6
2014-Aug-22 21:16N 52°43' E 002°14'913.2
2014-Aug-22 20:34N 52°34' E 002°18'  
Track history (hours):
 
Tides and Currents Weather Stations Pressure Air Temp Water Temp Dewpoint Dewpoint Depression Visibility Wind Speed Wind Dir Waves Ship Positions

Marianne

Last reported at 2014-Sep-01 20:33 UTC. Time now 2014-Sep-01 21:19 UTC.
Position N 63°29' E 010°08'.

Length 97 m; draft 5.5 m.

Type: Ship (hazmat cat B). MMSI: 477560836.

Date/timePositionNaut miles runAvg speedWind from/ knotsBaromVisibWave heightAir tempDewpointWater temp
2014-Sep-01 20:33N 63°29' E 010°08'78 9.3
2014-Sep-01 12:10N 63°13' E 007°18'7 9.4
2014-Sep-01 11:23N 63°09' E 007°04'54113.2
2014-Aug-30 18:33N 55°04' W 000°40'1513.8
2014-Aug-30 17:29N 54°52' W 000°55'1213.1
2014-Aug-30 16:33N 54°41' W 001°05'5 0.2
2014-Aug-29 17:31N 54°37' W 001°10'0 0.0
2014-Aug-29 14:25N 54°37' W 001°10'0 0.0
2014-Aug-29 13:25N 54°37' W 001°10'0 0.0
2014-Aug-29 11:28N 54°37' W 001°10'0 0.0
2014-Aug-29 10:25N 54°37' W 001°10'0 0.0
2014-Aug-29 09:31N 54°37' W 001°10'0 0.0
2014-Aug-29 08:31N 54°37' W 001°10'0 0.0
2014-Aug-28 17:28N 54°37' W 001°10'0 0.0
2014-Aug-28 16:16N 54°37' W 001°10'0 0.0
2014-Aug-28 15:28N 54°37' W 001°10'0 0.0
2014-Aug-28 12:07N 54°37' W 001°10'0 0.0
2014-Aug-28 11:19N 54°37' W 001°10'0 0.0
2014-Aug-28 10:22N 54°37' W 001°10'0 0.0
2014-Aug-28 09:25N 54°37' W 001°10'0 0.0
2014-Aug-28 08:28N 54°37' W 001°10'0 0.0
2014-Aug-28 07:22N 54°37' W 001°10'0 0.0
2014-Aug-27 16:25N 54°37' W 001°10'0 0.0
2014-Aug-27 15:31N 54°37' W 001°10'0 0.0
2014-Aug-27 14:28N 54°37' W 001°10'0 0.0
2014-Aug-27 13:31N 54°37' W 001°10'0 0.0
2014-Aug-27 12:31N 54°37' W 001°10'1 0.9
2014-Aug-27 11:32N 54°38' W 001°09'5 3.3
2014-Aug-27 10:09N 54°40' W 001°02'0 0.0
2014-Aug-27 09:27N 54°40' W 001°02'0 0.0
2014-Aug-27 08:27N 54°40' W 001°02'0 0.0
2014-Aug-27 07:27N 54°40' W 001°02'0 0.0
2014-Aug-27 06:30N 54°40' W 001°02'0 0.0
2014-Aug-27 05:15N 54°40' W 001°02'0 0.0
2014-Aug-27 04:33N 54°40' W 001°02'0 0.0
2014-Aug-27 03:33N 54°40' W 001°02'0 0.0
2014-Aug-27 02:33N 54°40' W 001°02'0 0.0
2014-Aug-27 01:33N 54°40' W 001°02'0 0.0
2014-Aug-27 00:33N 54°40' W 001°02'0 0.0
2014-Aug-26 23:33N 54°40' W 001°02'0 0.0
2014-Aug-26 22:33N 54°40' W 001°02'0 0.0
2014-Aug-26 21:33N 54°40' W 001°02'0 0.0
2014-Aug-26 20:33N 54°40' W 001°02'0 0.0
2014-Aug-26 19:33N 54°40' W 001°02'0 0.0
2014-Aug-26 18:33N 54°40' W 001°02'0 0.0
2014-Aug-26 17:33N 54°40' W 001°02'0 0.0
2014-Aug-26 16:33N 54°40' W 001°02'0 0.0
2014-Aug-26 15:33N 54°40' W 001°02'0 0.0
2014-Aug-26 14:30N 54°40' W 001°02'0 0.0
2014-Aug-26 13:33N 54°40' W 001°02'0 0.0
2014-Aug-26 12:33N 54°40' W 001°02'0 0.0
2014-Aug-26 11:30N 54°40' W 001°02'0 0.0
2014-Aug-26 10:33N 54°40' W 001°02'0 0.0
2014-Aug-26 09:33N 54°40' W 001°02'0 0.0
2014-Aug-26 08:18N 54°40' W 001°02'0 0.0
2014-Aug-26 07:33N 54°40' W 001°02'0 0.0
2014-Aug-26 06:33N 54°40' W 001°02'0 0.0
2014-Aug-26 05:33N 54°40' W 001°02'0 0.0
2014-Aug-26 04:33N 54°40' W 001°02'0 0.0
2014-Aug-26 03:33N 54°40' W 001°02'0 0.0
2014-Aug-26 02:33N 54°40' W 001°02'0 0.0
2014-Aug-26 01:33N 54°40' W 001°02'0 0.0
2014-Aug-26 00:33N 54°40' W 001°02'0 0.0
2014-Aug-25 23:24N 54°40' W 001°02'0 0.0
2014-Aug-25 22:33N 54°40' W 001°02'0 0.0
2014-Aug-25 21:33N 54°40' W 001°02'0 0.0
2014-Aug-25 20:33N 54°40' W 001°02'0 0.0
2014-Aug-25 19:33N 54°40' W 001°02'0 0.0
2014-Aug-25 18:33N 54°40' W 001°02'0 0.0
2014-Aug-25 17:33N 54°40' W 001°02'0 0.0
2014-Aug-25 16:33N 54°40' W 001°02'0 0.0
2014-Aug-25 15:33N 54°40' W 001°02'0 0.0
2014-Aug-25 14:21N 54°40' W 001°02'0 0.0
2014-Aug-25 13:27N 54°40' W 001°02'0 0.0
2014-Aug-25 12:33N 54°40' W 001°02'0 0.0
2014-Aug-25 11:24N 54°40' W 001°02'0 0.0
2014-Aug-25 10:24N 54°40' W 001°02'0 0.0
2014-Aug-25 09:15N 54°40' W 001°02'0 0.0
2014-Aug-25 08:12N 54°40' W 001°02'0 0.0
2014-Aug-25 07:33N 54°40' W 001°02'0 0.0
2014-Aug-25 06:33N 54°40' W 001°02'0 0.1
2014-Aug-25 05:33N 54°40' W 001°01'0 0.0
2014-Aug-25 04:33N 54°40' W 001°01'0 0.0
2014-Aug-25 03:30N 54°40' W 001°01'0 0.0
2014-Aug-25 02:33N 54°40' W 001°01'0 0.0
2014-Aug-25 01:30N 54°40' W 001°01'0 0.0
2014-Aug-25 00:33N 54°40' W 001°01'0 0.1
2014-Aug-24 23:33N 54°40' W 001°02'0 0.0
2014-Aug-24 22:33N 54°40' W 001°02'0 0.0
2014-Aug-24 21:33N 54°40' W 001°02'0 0.0
2014-Aug-24 20:33N 54°40' W 001°02'0 0.0
2014-Aug-24 19:18N 54°40' W 001°02'0 0.0
2014-Aug-24 18:33N 54°40' W 001°02'0 0.0
2014-Aug-24 17:33N 54°40' W 001°02'0 0.0
2014-Aug-24 16:33N 54°40' W 001°02'0 0.0
2014-Aug-24 15:33N 54°40' W 001°01'0 0.0
2014-Aug-24 14:30N 54°40' W 001°01'0 0.0
2014-Aug-24 13:18N 54°40' W 001°01'0 0.0
2014-Aug-24 12:33N 54°40' W 001°01'0 0.0
2014-Aug-24 11:33N 54°40' W 001°01'0 0.0
2014-Aug-24 10:24N 54°40' W 001°02'0 0.0
2014-Aug-24 09:12N 54°40' W 001°02'0 0.0
2014-Aug-24 08:24N 54°40' W 001°01'0 0.1
2014-Aug-24 07:27N 54°40' W 001°01'0 0.0
2014-Aug-24 06:27N 54°40' W 001°01'0 0.0
2014-Aug-24 05:33N 54°40' W 001°01'0 0.0
2014-Aug-24 04:33N 54°40' W 001°01'0 0.0
2014-Aug-24 03:33N 54°40' W 001°01'0 0.0
2014-Aug-24 02:33N 54°40' W 001°01'0 0.0
2014-Aug-24 01:33N 54°40' W 001°01'0 0.0
2014-Aug-24 00:33N 54°40' W 001°01'0 0.0
2014-Aug-23 23:33N 54°40' W 001°01'0 0.0
2014-Aug-23 22:33N 54°40' W 001°01'0 0.1
2014-Aug-23 21:33N 54°40' W 001°01'0 0.0
2014-Aug-23 20:33N 54°40' W 001°01'0 0.0
2014-Aug-23 19:33N 54°40' W 001°01'79 4.9
2014-Aug-23 03:32N 53°48' E 000°40'4013.3
2014-Aug-23 00:33N 53°14' E 001°14'1515.3
2014-Aug-22 23:34N 53°04' E 001°33'1515.3
2014-Aug-22 22:33N 52°57' E 001°56'1813.6
2014-Aug-22 21:16N 52°43' E 002°14'913.2
2014-Aug-22 20:34N 52°34' E 002°18'  

Dump ship's entire track history